createdAt,value
2023-02-12T00:01:54.774Z,16.77
2023-02-12T00:04:23.301Z,16.03
2023-02-12T00:06:53.169Z,13.27
2023-02-12T00:09:24.105Z,11.97
2023-02-12T00:11:52.754Z,13.87
2023-02-12T00:14:21.307Z,16.40
2023-02-12T00:16:49.810Z,15.30
2023-02-12T00:19:18.447Z,12.60
2023-02-12T00:21:47.087Z,13.03
2023-02-12T00:24:16.991Z,11.73
2023-02-12T00:26:45.531Z,15.80
2023-02-12T00:29:13.934Z,12.00
2023-02-12T00:31:42.547Z,13.83
2023-02-12T00:34:12.638Z,13.67
2023-02-12T00:36:41.093Z,16.40
2023-02-12T00:39:11.554Z,14.73
2023-02-12T00:41:41.384Z,14.97
2023-02-12T00:44:09.980Z,15.03
2023-02-12T00:46:47.734Z,12.30
2023-02-12T00:49:16.285Z,13.77
2023-02-12T00:51:44.757Z,13.87
2023-02-12T00:54:13.377Z,14.13
2023-02-12T00:56:43.605Z,13.43
2023-02-12T00:59:12.032Z,14.33
2023-02-12T01:01:40.505Z,13.20
2023-02-12T01:04:09.117Z,14.10
2023-02-12T01:06:37.598Z,15.40
2023-02-12T01:09:06.196Z,13.73
2023-02-12T01:11:34.693Z,15.10
2023-02-12T01:14:04.990Z,17.87
2023-02-12T01:16:36.516Z,15.87
2023-02-12T01:19:06.489Z,13.70
2023-02-12T01:21:36.473Z,14.27
2023-02-12T01:24:05.605Z,13.37
2023-02-12T01:26:34.445Z,14.03
2023-02-12T01:29:08.344Z,15.37
2023-02-12T01:31:40.421Z,12.23
2023-02-12T01:34:11.508Z,14.80
2023-02-12T01:36:40.576Z,13.93
2023-02-12T01:39:09.208Z,15.20
2023-02-12T01:41:42.375Z,15.93
2023-02-12T01:44:17.790Z,15.50
2023-02-12T01:46:48.245Z,17.43
2023-02-12T01:49:23.744Z,18.37
2023-02-12T01:51:56.156Z,17.57
2023-02-12T01:54:26.900Z,15.10
2023-02-12T01:56:56.114Z,15.37
2023-02-12T01:59:26.711Z,19.53
2023-02-12T02:01:56.208Z,18.83
2023-02-12T02:04:29.225Z,17.37
2023-02-12T02:07:01.121Z,15.67
2023-02-12T02:09:31.578Z,23.97
2023-02-12T02:12:17.743Z,21.20
2023-02-12T02:14:49.452Z,21.83
2023-02-12T02:17:51.613Z,20.53
2023-02-12T02:21:09.838Z,29.00
2023-02-12T02:24:06.961Z,16.10
2023-02-12T02:27:17.671Z,14.43
2023-02-12T02:30:33.233Z,16.90
2023-02-12T02:33:26.901Z,16.00
2023-02-12T02:36:08.067Z,18.93
2023-02-12T02:39:06.512Z,18.53
2023-02-12T02:41:40.986Z,18.23
2023-02-12T02:44:18.001Z,17.03
2023-02-12T02:46:51.418Z,18.00
2023-02-12T02:49:25.254Z,18.97
2023-02-12T02:52:03.782Z,20.67
2023-02-12T02:54:38.961Z,19.63
2023-02-12T02:57:15.610Z,18.20
2023-02-12T02:59:51.487Z,16.13
2023-02-12T03:02:29.117Z,16.60
2023-02-12T03:05:03.947Z,17.40
2023-02-12T03:07:39.705Z,22.83
2023-02-12T03:10:14.737Z,18.60
2023-02-12T03:12:52.424Z,20.73
2023-02-12T03:15:27.560Z,19.23
2023-02-12T03:18:01.051Z,18.73
2023-02-12T03:20:45.925Z,17.67
2023-02-12T03:23:20.748Z,18.23
2023-02-12T03:25:57.891Z,16.07
2023-02-12T03:28:32.604Z,16.00
2023-02-12T03:31:12.067Z,16.17
2023-02-12T03:33:59.615Z,18.50
2023-02-12T03:36:44.323Z,17.13
2023-02-12T03:39:20.342Z,17.70
2023-02-12T03:42:06.733Z,16.20
2023-02-12T03:44:51.092Z,16.83
2023-02-12T03:47:28.001Z,18.87
2023-02-12T03:50:07.926Z,16.53
2023-02-12T03:52:37.305Z,16.67
2023-02-12T03:55:08.371Z,17.27
2023-02-12T03:57:47.721Z,15.67
2023-02-12T04:00:21.662Z,18.47
2023-02-12T04:02:50.882Z,20.10
2023-02-12T04:05:24.312Z,18.93
2023-02-12T04:07:59.755Z,18.40
2023-02-12T04:10:36.929Z,20.27
2023-02-12T04:13:20.152Z,22.37
2023-02-12T04:16:06.487Z,29.87
2023-02-12T04:18:43.276Z,24.53
2023-02-12T04:21:33.327Z,26.43
2023-02-12T04:24:13.935Z,21.47
2023-02-12T04:26:53.871Z,21.37
2023-02-12T04:29:33.478Z,21.90
2023-02-12T04:32:13.318Z,17.83
2023-02-12T04:34:52.657Z,15.90
2023-02-12T04:37:27.346Z,17.43
2023-02-12T04:39:57.934Z,19.10
2023-02-12T04:42:26.540Z,17.67
2023-02-12T04:44:55.060Z,18.63
2023-02-12T04:47:23.487Z,18.57
2023-02-12T04:49:53.589Z,18.27
2023-02-12T04:52:23.405Z,18.07
2023-02-12T04:54:51.858Z,17.70
2023-02-12T04:57:20.340Z,18.80
2023-02-12T04:59:48.739Z,19.97
2023-02-12T05:02:17.247Z,19.07
2023-02-12T05:04:45.684Z,20.40
2023-02-12T05:07:14.136Z,17.43
2023-02-12T05:09:44.136Z,21.67
2023-02-12T05:12:12.612Z,19.20
2023-02-12T05:14:41.353Z,18.50
2023-02-12T05:17:09.876Z,20.93
2023-02-12T05:19:38.344Z,19.70
2023-02-12T05:22:06.903Z,22.97
2023-02-12T05:24:35.396Z,19.57
2023-02-12T05:27:05.425Z,20.90
2023-02-12T05:29:33.878Z,20.60
2023-02-12T05:32:02.497Z,19.67
2023-02-12T05:34:31.271Z,20.13
2023-02-12T05:36:59.770Z,22.47
2023-02-12T05:39:28.463Z,20.80
2023-02-12T05:41:56.853Z,20.07
2023-02-12T05:44:26.753Z,21.93
2023-02-12T05:46:55.188Z,22.33
2023-02-12T05:49:23.670Z,20.53
2023-02-12T05:51:52.265Z,22.37
2023-02-12T05:54:20.732Z,22.53
2023-02-12T05:56:49.655Z,20.40
2023-02-12T05:59:21.741Z,18.03
2023-02-12T06:01:53.881Z,20.30
2023-02-12T06:04:25.552Z,20.13
2023-02-12T06:06:55.948Z,17.97
2023-02-12T06:09:25.294Z,17.57
2023-02-12T06:11:54.038Z,17.60
2023-02-12T06:14:23.382Z,22.53
2023-02-12T06:16:56.468Z,18.50
2023-02-12T06:19:25.560Z,17.13
2023-02-12T06:22:05.047Z,19.53
2023-02-12T06:24:33.748Z,22.70
2023-02-12T06:27:02.207Z,24.07
2023-02-12T06:29:30.819Z,23.67
2023-02-12T06:32:00.836Z,19.53
2023-02-12T06:34:29.429Z,20.93
2023-02-12T06:36:58.368Z,26.20
2023-02-12T06:39:26.924Z,22.23
2023-02-12T06:41:55.426Z,18.10
2023-02-12T06:44:23.886Z,21.07
2023-02-12T06:46:52.345Z,18.50
2023-02-12T06:49:22.216Z,26.53
2023-02-12T06:51:50.673Z,19.70
2023-02-12T06:54:19.750Z,21.03
2023-02-12T06:56:48.330Z,18.40
2023-02-12T06:59:18.311Z,16.90
2023-02-12T07:02:38.952Z,19.17
2023-02-12T07:05:10.531Z,16.20
2023-02-12T07:07:38.991Z,16.47
2023-02-12T07:10:09.452Z,17.30
2023-02-12T07:12:37.940Z,17.07
2023-02-12T07:15:06.873Z,14.70
2023-02-12T07:17:35.359Z,13.57
2023-02-12T07:20:03.981Z,17.30
2023-02-12T07:22:37.096Z,16.57
2023-02-12T07:25:06.237Z,15.27
2023-02-12T07:27:38.768Z,17.10
2023-02-12T07:30:09.453Z,21.17
2023-02-12T07:32:37.965Z,18.83
2023-02-12T07:35:07.551Z,18.77
2023-02-12T07:37:37.478Z,14.33
2023-02-12T07:40:07.677Z,18.67
2023-02-12T07:42:36.081Z,18.30
2023-02-12T07:45:04.764Z,20.67
2023-02-12T07:47:33.229Z,20.17
2023-02-12T07:50:01.727Z,20.77
2023-02-12T07:52:30.130Z,19.70
2023-02-12T07:54:59.946Z,18.70
2023-02-12T07:57:28.406Z,19.90
2023-02-12T07:59:57.064Z,16.87
2023-02-12T08:02:26.113Z,18.20
2023-02-12T08:04:57.435Z,20.20
2023-02-12T08:07:26.573Z,19.10
2023-02-12T08:09:55.026Z,20.70
2023-02-12T08:12:24.822Z,17.83
2023-02-12T08:14:54.388Z,21.17
2023-02-12T08:17:22.822Z,19.83
2023-02-12T08:19:51.264Z,19.93
2023-02-12T08:22:19.804Z,19.93
2023-02-12T08:24:49.216Z,21.53
2023-02-12T08:27:17.640Z,18.83
2023-02-12T08:29:47.778Z,18.97
2023-02-12T08:32:17.167Z,18.83
2023-02-12T08:34:45.698Z,21.00
2023-02-12T08:37:14.832Z,22.03
2023-02-12T08:39:43.507Z,23.93
2023-02-12T08:42:12.116Z,23.23
2023-02-12T08:44:40.782Z,24.37
2023-02-12T08:47:10.654Z,20.40
2023-02-12T08:49:39.395Z,20.47
2023-02-12T08:52:07.810Z,22.17
2023-02-12T08:54:36.431Z,28.20
2023-02-12T08:57:05.179Z,27.17
2023-02-12T08:59:33.774Z,22.10
2023-02-12T09:02:04.110Z,25.67
2023-02-12T09:04:35.947Z,25.73
2023-02-12T09:07:04.409Z,24.90
2023-02-12T09:09:32.963Z,25.33
2023-02-12T09:12:01.481Z,25.23
2023-02-12T09:14:29.913Z,24.20
2023-02-12T09:16:58.466Z,19.77
2023-02-12T09:19:27.359Z,20.67
2023-02-12T09:21:57.934Z,21.47
2023-02-12T09:24:27.648Z,23.93
2023-02-12T09:26:56.506Z,27.13
2023-02-12T09:29:25.221Z,23.27
2023-02-12T09:31:53.877Z,23.57
2023-02-12T09:34:22.402Z,22.43
2023-02-12T09:36:50.953Z,24.23
2023-02-12T09:39:20.774Z,23.53
2023-02-12T09:42:36.572Z,20.57
2023-02-12T09:45:17.689Z,24.17
2023-02-12T09:47:52.884Z,25.20
2023-02-12T09:50:39.366Z,25.43
2023-02-12T09:53:10.792Z,24.80
2023-02-12T09:55:43.033Z,28.23
2023-02-12T09:58:19.187Z,28.50
2023-02-12T10:00:47.667Z,24.80
2023-02-12T10:03:18.767Z,27.97
2023-02-12T10:05:52.986Z,26.73
2023-02-12T10:08:48.676Z,27.80
2023-02-12T10:11:53.260Z,28.93
2023-02-12T10:14:56.947Z,32.03
2023-02-12T10:17:37.759Z,30.70
2023-02-12T10:20:46.709Z,28.63
2023-02-12T10:23:35.170Z,35.37
2023-02-12T10:26:18.792Z,28.83
2023-02-12T10:28:49.074Z,31.13
2023-02-12T10:31:30.029Z,28.93
2023-02-12T10:33:59.283Z,28.80
2023-02-12T10:36:43.053Z,29.53
2023-02-12T10:39:20.859Z,28.57
2023-02-12T10:41:59.341Z,24.57
2023-02-12T10:44:30.123Z,28.80
2023-02-12T10:46:58.607Z,29.67
2023-02-12T10:49:27.891Z,29.00
2023-02-12T10:52:13.758Z,25.97
2023-02-12T10:54:45.663Z,26.10
2023-02-12T10:57:23.028Z,28.87
2023-02-12T10:59:57.164Z,31.80
2023-02-12T11:02:31.672Z,27.50
2023-02-12T11:05:32.967Z,28.73
2023-02-12T11:08:02.260Z,27.33
2023-02-12T11:10:34.088Z,29.70
2023-02-12T11:13:04.301Z,30.60
2023-02-12T11:15:39.939Z,26.53
2023-02-12T11:18:10.923Z,26.40
2023-02-12T11:20:41.876Z,30.77
2023-02-12T11:23:27.962Z,27.63
2023-02-12T11:26:01.253Z,27.50
2023-02-12T11:28:30.985Z,26.30
2023-02-12T11:31:28.177Z,28.33
2023-02-12T11:34:16.097Z,26.63
2023-02-12T11:36:46.895Z,28.83
2023-02-12T11:39:26.954Z,27.40
2023-02-12T11:41:58.992Z,29.87
2023-02-12T11:44:33.643Z,28.80
2023-02-12T11:47:09.209Z,28.33
2023-02-12T11:49:44.411Z,29.13
2023-02-12T11:52:24.092Z,27.53
2023-02-12T11:54:56.607Z,31.57
2023-02-12T11:57:38.670Z,30.40
2023-02-12T12:00:16.519Z,32.33
2023-02-12T12:02:51.506Z,31.80
2023-02-12T12:05:23.240Z,30.37
2023-02-12T12:08:23.005Z,31.43
2023-02-12T12:10:59.041Z,30.93
2023-02-12T12:13:36.333Z,31.47
2023-02-12T12:16:43.765Z,33.53
2023-02-12T12:19:40.245Z,25.77
2023-02-12T12:22:25.787Z,30.00
2023-02-12T12:25:01.699Z,24.87
2023-02-12T12:27:58.824Z,30.33
2023-02-12T12:30:41.953Z,28.50
2023-02-12T12:33:21.117Z,32.47
2023-02-12T12:36:08.130Z,27.87
2023-02-12T12:38:53.725Z,32.13
2023-02-12T12:41:36.667Z,32.47
2023-02-12T12:44:47.261Z,28.63
2023-02-12T12:47:32.820Z,29.50
2023-02-12T12:50:23.296Z,29.10
2023-02-12T12:53:19.977Z,27.27
2023-02-12T12:56:06.422Z,26.53
2023-02-12T12:58:53.436Z,28.10
2023-02-12T13:02:02.535Z,29.20
2023-02-12T13:05:20.474Z,28.53
2023-02-12T13:08:07.921Z,30.63
2023-02-12T13:10:43.103Z,28.10
2023-02-12T13:13:26.921Z,28.80
2023-02-12T13:16:07.278Z,30.53
2023-02-12T13:18:51.918Z,27.20
2023-02-12T13:21:48.090Z,31.30
2023-02-12T13:24:32.996Z,30.33
2023-02-12T13:27:04.966Z,28.63
2023-02-12T13:29:41.381Z,31.57
2023-02-12T13:32:17.941Z,31.43
2023-02-12T13:34:46.910Z,30.30
2023-02-12T13:37:21.617Z,30.77
2023-02-12T13:39:54.189Z,29.53
2023-02-12T13:42:44.556Z,33.17
2023-02-12T13:45:36.121Z,32.20
2023-02-12T13:48:36.739Z,32.33
2023-02-12T13:51:16.898Z,30.50
2023-02-12T13:54:01.690Z,31.50
2023-02-12T13:56:43.243Z,30.83
2023-02-12T13:59:41.861Z,31.27
2023-02-12T14:02:44.401Z,27.67
2023-02-12T14:05:26.337Z,33.10
2023-02-12T14:07:58.644Z,32.07
2023-02-12T14:10:32.871Z,31.37
2023-02-12T14:13:17.476Z,30.47
2023-02-12T14:15:51.276Z,30.53
2023-02-12T14:18:37.528Z,33.57
2023-02-12T14:21:36.774Z,28.77
2023-02-12T14:25:24.407Z,33.77
2023-02-12T14:27:56.520Z,28.40
2023-02-12T14:30:35.099Z,33.63
2023-02-12T14:33:25.723Z,38.03
2023-02-12T14:36:40.821Z,34.67
2023-02-12T14:39:30.813Z,35.93
2023-02-12T14:42:45.853Z,48.00
2023-02-12T14:48:08.954Z,44.47
2023-02-12T14:50:50.303Z,35.27
2023-02-12T14:53:31.782Z,34.77
2023-02-12T14:56:01.498Z,36.63
2023-02-12T14:58:31.982Z,41.83
2023-02-12T15:01:04.032Z,40.37
2023-02-12T15:04:13.665Z,36.67
2023-02-12T15:06:52.030Z,38.33
2023-02-12T15:09:30.814Z,33.83
2023-02-12T15:12:13.004Z,34.43
2023-02-12T15:15:08.894Z,38.00
2023-02-12T15:17:42.877Z,35.07
2023-02-12T15:20:24.262Z,35.80
2023-02-12T15:22:52.709Z,44.17
2023-02-12T15:25:28.777Z,39.40
2023-02-12T15:28:00.700Z,39.77
2023-02-12T15:30:33.735Z,36.70
2023-02-12T15:33:07.884Z,32.50
2023-02-12T15:35:45.328Z,40.87
2023-02-12T15:38:24.502Z,35.90
2023-02-12T15:40:59.007Z,38.77
2023-02-12T15:43:31.490Z,36.67
2023-02-12T15:46:00.260Z,37.90
2023-02-12T15:48:33.443Z,37.40
2023-02-12T15:51:16.172Z,38.30
2023-02-12T15:53:45.650Z,38.83
2023-02-12T15:56:42.277Z,40.17
2023-02-12T15:59:22.497Z,42.27
2023-02-12T16:01:57.689Z,41.07
2023-02-12T16:04:30.665Z,39.70
2023-02-12T16:07:02.612Z,39.80
2023-02-12T16:09:34.849Z,39.43
2023-02-12T16:12:11.312Z,38.77
2023-02-12T16:14:44.821Z,46.27
2023-02-12T16:17:27.693Z,40.53
2023-02-12T16:19:59.875Z,41.27
2023-02-12T16:22:35.113Z,41.90
2023-02-12T16:25:05.912Z,42.60
2023-02-12T16:28:01.539Z,41.23
2023-02-12T16:30:34.026Z,59.57
2023-02-12T16:33:03.274Z,62.33
2023-02-12T16:35:34.455Z,65.70
2023-02-12T16:38:40.384Z,68.57
2023-02-12T16:41:34.124Z,56.97
2023-02-12T16:44:31.600Z,64.67
2023-02-12T16:47:02.820Z,52.90
2023-02-12T16:49:31.635Z,52.27
2023-02-12T16:52:32.454Z,46.40
2023-02-12T16:55:02.433Z,41.87
2023-02-12T16:57:31.083Z,38.80
2023-02-12T16:59:59.600Z,42.37
2023-02-12T17:02:28.068Z,48.40
2023-02-12T17:05:00.904Z,45.70
2023-02-12T17:07:31.134Z,41.00
2023-02-12T17:10:01.289Z,39.67
2023-02-12T17:12:30.539Z,48.03
2023-02-12T17:14:59.138Z,39.53
2023-02-12T17:17:27.568Z,45.57
2023-02-12T17:19:56.103Z,45.70
2023-02-12T17:22:27.999Z,41.97
2023-02-12T17:24:56.456Z,48.17
2023-02-12T17:27:26.360Z,47.03
2023-02-12T17:29:54.781Z,47.10
2023-02-12T17:32:24.614Z,46.87
2023-02-12T17:34:53.301Z,47.57
2023-02-12T17:37:22.311Z,49.17
2023-02-12T17:39:50.851Z,43.27
2023-02-12T17:42:19.752Z,42.00
2023-02-12T17:44:49.658Z,43.40
2023-02-12T17:47:18.150Z,51.80
2023-02-12T17:49:46.642Z,42.90
2023-02-12T17:52:15.098Z,46.23
2023-02-12T17:54:46.561Z,44.87
2023-02-12T17:57:15.057Z,48.17
2023-02-12T17:59:43.740Z,50.53
2023-02-12T18:02:13.926Z,44.60
2023-02-12T18:04:42.641Z,47.10
2023-02-12T18:07:11.209Z,50.67
2023-02-12T18:09:40.046Z,73.53
2023-02-12T18:12:09.920Z,76.30
2023-02-12T18:14:38.371Z,70.77
2023-02-12T18:17:06.960Z,70.70
2023-02-12T18:19:36.860Z,83.10
2023-02-12T18:22:05.414Z,71.90
2023-02-12T18:24:35.106Z,76.70
2023-02-12T18:27:03.692Z,77.30
2023-02-12T18:29:32.154Z,66.30
2023-02-12T18:32:00.699Z,60.30
2023-02-12T18:34:29.238Z,47.27
2023-02-12T18:36:59.191Z,50.87
2023-02-12T18:39:27.884Z,51.73
2023-02-12T18:41:56.456Z,53.27
2023-02-12T18:44:24.997Z,50.00
2023-02-12T18:46:53.602Z,50.23
2023-02-12T18:49:22.095Z,52.87
2023-02-12T18:51:50.575Z,50.53
2023-02-12T18:54:20.838Z,46.17
2023-02-12T18:56:53.399Z,47.87
2023-02-12T18:59:25.150Z,46.40
2023-02-12T19:01:54.878Z,46.97
2023-02-12T19:04:26.537Z,46.23
2023-02-12T19:06:56.202Z,49.03
2023-02-12T19:09:28.158Z,52.83
2023-02-12T19:11:59.582Z,59.23
2023-02-12T19:14:29.613Z,57.73
2023-02-12T19:16:58.048Z,56.73
2023-02-12T19:19:27.881Z,54.70
2023-02-12T19:21:56.394Z,64.07
2023-02-12T19:24:30.490Z,55.73
2023-02-12T19:27:06.276Z,60.33
2023-02-12T19:29:41.862Z,51.23
2023-02-12T19:32:10.549Z,60.43
2023-02-12T19:34:39.288Z,49.33
2023-02-12T19:37:10.915Z,49.80
2023-02-12T19:39:42.174Z,50.73
2023-02-12T19:42:12.886Z,53.83
2023-02-12T19:44:41.711Z,56.53
2023-02-12T19:47:12.572Z,60.03
2023-02-12T19:49:41.457Z,48.43
2023-02-12T19:52:10.384Z,54.57
2023-02-12T19:54:40.308Z,65.07
2023-02-12T19:57:12.004Z,53.90
2023-02-12T19:59:42.107Z,48.17
2023-02-12T20:02:11.651Z,53.23
2023-02-12T20:04:40.679Z,49.37
2023-02-12T20:07:09.509Z,76.00
2023-02-12T20:09:38.207Z,70.77
2023-02-12T20:12:08.469Z,90.07
2023-02-12T20:14:36.929Z,53.93
2023-02-12T20:17:05.929Z,70.53
2023-02-12T20:19:34.604Z,68.20
2023-02-12T20:22:04.662Z,72.30
2023-02-12T20:24:35.353Z,60.40
2023-02-12T20:27:04.493Z,54.57
2023-02-12T20:29:34.361Z,47.27
2023-02-12T20:32:02.948Z,57.37
2023-02-12T20:34:34.784Z,58.50
2023-02-12T20:37:11.566Z,53.90
2023-02-12T20:39:40.046Z,56.63
2023-02-12T20:42:08.816Z,64.13
2023-02-12T20:44:39.045Z,58.70
2023-02-12T20:47:07.683Z,60.50
2023-02-12T20:49:36.218Z,51.60
2023-02-12T20:52:04.651Z,54.43
2023-02-12T20:54:33.137Z,58.50
2023-02-12T20:57:06.722Z,58.10
2023-02-12T20:59:35.237Z,58.77
2023-02-12T21:02:05.471Z,51.70
2023-02-12T21:04:59.113Z,59.70
2023-02-12T21:07:27.637Z,65.03
2023-02-12T21:09:56.440Z,63.10
2023-02-12T21:12:24.952Z,63.47
2023-02-12T21:14:53.538Z,74.77
2023-02-12T21:17:24.683Z,73.97
2023-02-12T21:19:53.234Z,72.03
2023-02-12T21:22:22.258Z,66.30
2023-02-12T21:24:50.788Z,62.87
2023-02-12T21:27:19.291Z,68.57
2023-02-12T21:29:47.799Z,64.40
2023-02-12T21:32:16.596Z,57.77
2023-02-12T21:34:48.590Z,60.80
2023-02-12T21:37:17.387Z,60.57
2023-02-12T21:39:46.088Z,60.67
2023-02-12T21:42:14.609Z,60.27
2023-02-12T21:44:43.136Z,54.77
2023-02-12T21:47:11.923Z,56.20
2023-02-12T21:49:40.487Z,55.27
2023-02-12T21:52:11.582Z,54.60
2023-02-12T21:54:40.196Z,55.03
2023-02-12T21:57:08.774Z,58.50
2023-02-12T21:59:37.329Z,62.57
2023-02-12T22:02:06.071Z,63.20
2023-02-12T22:04:34.702Z,70.87
2023-02-12T22:07:03.865Z,68.03
2023-02-12T22:09:34.185Z,71.43
2023-02-12T22:12:02.772Z,66.47
2023-02-12T22:14:31.397Z,67.90
2023-02-12T22:16:59.932Z,62.37
2023-02-12T22:19:28.510Z,60.70
2023-02-12T22:21:57.037Z,54.93
2023-02-12T22:24:25.633Z,55.50
2023-02-12T22:26:56.174Z,55.93
2023-02-12T22:29:24.686Z,60.63
2023-02-12T22:31:53.350Z,59.10
2023-02-12T22:34:21.876Z,63.33
2023-02-12T22:36:50.541Z,61.33
2023-02-12T22:39:19.361Z,60.50
2023-02-12T22:41:48.279Z,65.73
2023-02-12T22:44:21.070Z,59.87
2023-02-12T22:46:50.388Z,57.83
2023-02-12T22:49:18.971Z,57.53
2023-02-12T22:51:47.755Z,57.07
2023-02-12T22:54:19.185Z,67.30
2023-02-12T22:56:51.486Z,59.07
2023-02-12T22:59:21.370Z,66.67
2023-02-12T23:01:49.847Z,60.13
2023-02-12T23:04:19.710Z,64.77
2023-02-12T23:06:48.732Z,62.63
2023-02-12T23:09:19.331Z,61.30
2023-02-12T23:12:13.302Z,64.00
2023-02-12T23:15:11.635Z,55.40
2023-02-12T23:17:40.159Z,58.30
2023-02-12T23:20:10.101Z,66.73
2023-02-12T23:22:38.604Z,66.90
2023-02-12T23:25:07.580Z,66.80
2023-02-12T23:27:36.112Z,60.00
2023-02-12T23:30:05.067Z,62.33
2023-02-12T23:32:34.943Z,57.43
2023-02-12T23:35:03.467Z,59.53
2023-02-12T23:37:31.999Z,63.10
2023-02-12T23:40:00.541Z,58.23
2023-02-12T23:42:29.054Z,64.10
2023-02-12T23:45:22.150Z,56.00
2023-02-12T23:47:52.078Z,62.30
2023-02-12T23:50:20.931Z,55.70
2023-02-12T23:52:49.681Z,57.37
2023-02-12T23:55:20.248Z,58.93
2023-02-12T23:57:49.870Z,54.63
